Kooskia, Idaho
Current Conditions -  °F | °C
As of 8:15 AM on Wednesday 28 Jan 2015 (Local Time) from KGIC Reporting Station
Overcast Overcast  
Wind Chill: 30°   Ceiling: 6000
Heat Index: 35°   Visibility: 10mi
Dew Point: 33°   Wind: 6mph
Humidity: 92%   Direction: 130°SE
Pressure: 30.35"   Gusts: NA
Location:  46.14°N, 115.98°W
Report Text: KGIC 281615Z AUTO 13005KT 10SM OVC060 02/01 A3035 RMK AO1 T00170005
Loading
Personal Weather Stations






























Interactive Weather Map New forecast layout! Learn more

10-Day Weather Forecast

Advertisements
Track Severe Weather on mobile